createdAt,value
2022-09-20T00:04:56.834Z,99936.88
2022-09-20T00:09:58.637Z,99944.47
2022-09-20T00:15:00.418Z,99947.84
2022-09-20T00:20:02.475Z,99943.63
2022-09-20T00:25:04.666Z,99944.41
2022-09-20T00:30:06.944Z,99934.41
2022-09-20T00:35:10.733Z,99931.84
2022-09-20T00:40:16.156Z,99942.78
2022-09-20T00:45:29.268Z,99938.59
2022-09-20T00:50:52.644Z,99943.56
2022-09-20T00:56:13.100Z,99952.78
2022-09-20T01:01:15.358Z,99948.56
2022-09-20T01:06:17.809Z,99939.34
2022-09-20T01:11:19.820Z,99935.09
2022-09-20T01:16:22.713Z,99927.59
2022-09-20T01:21:26.168Z,99930.06
2022-09-20T01:26:27.700Z,99936.78
2022-09-20T01:31:35.000Z,99944.31
2022-09-20T01:36:46.428Z,99944.31
2022-09-20T01:41:54.354Z,99944.31
2022-09-20T01:47:10.905Z,99931.72
2022-09-20T01:52:24.713Z,99925.84
2022-09-20T01:57:41.407Z,99919.94
2022-09-20T02:03:33.926Z,99924.09
2022-09-20T02:09:01.984Z,99922.44
2022-09-20T02:14:23.370Z,99919.06
2022-09-20T02:19:25.128Z,99918.19
2022-09-20T02:24:37.366Z,99914.81
2022-09-20T02:30:06.783Z,99903.84
2022-09-20T02:35:20.033Z,99909.75
2022-09-20T02:40:47.362Z,99929.91
2022-09-20T02:46:09.086Z,99926.47
2022-09-20T02:51:38.507Z,99941.56
2022-09-20T02:56:55.573Z,99953.22
2022-09-20T03:02:39.013Z,99945.53
2022-09-20T03:08:05.064Z,99953.97
2022-09-20T03:13:31.729Z,99952.31
2022-09-20T03:19:03.110Z,99961.59
2022-09-20T03:24:23.609Z,99958.22
2022-09-20T03:29:40.922Z,99955.75
2022-09-20T03:34:55.336Z,99950.75
2022-09-20T03:40:19.076Z,99955.78
2022-09-20T03:45:26.519Z,99959.19
2022-09-20T03:50:34.189Z,99955.84
2022-09-20T03:55:35.928Z,99955.00
2022-09-20T04:00:46.158Z,99955.00
2022-09-20T04:06:09.629Z,99961.75
2022-09-20T04:11:53.640Z,99970.16
2022-09-20T04:17:01.139Z,99985.25
2022-09-20T04:22:03.297Z,99986.13
2022-09-20T04:27:15.189Z,99984.47
2022-09-20T04:32:36.317Z,99982.75
2022-09-20T04:37:39.726Z,99992.88
2022-09-20T04:42:51.773Z,100001.28
2022-09-20T04:48:24.210Z,100006.31
2022-09-20T04:53:38.061Z,100013.06
2022-09-20T04:59:08.188Z,100016.47
2022-09-20T05:04:47.809Z,100005.56
2022-09-20T05:10:27.936Z,100006.38
2022-09-20T05:15:30.689Z,100023.22
2022-09-20T05:20:50.868Z,100018.22
2022-09-20T05:26:08.167Z,100028.28
2022-09-20T05:31:25.075Z,100031.66
2022-09-20T05:36:57.368Z,100042.59
2022-09-20T05:42:09.553Z,100049.34
2022-09-20T05:47:29.455Z,100055.25
2022-09-20T05:52:54.583Z,100059.44
2022-09-20T05:58:08.505Z,100064.59
2022-09-20T06:03:30.379Z,100057.91
2022-09-20T06:08:49.215Z,100061.28
2022-09-20T06:14:01.182Z,100066.31
2022-09-20T06:19:20.522Z,100073.88
2022-09-20T06:24:30.652Z,100076.44
2022-09-20T06:29:36.705Z,100068.88
2022-09-20T06:34:38.569Z,100070.59
2022-09-20T06:40:08.796Z,100073.16
2022-09-20T06:45:10.756Z,100079.97
2022-09-20T06:50:17.072Z,100083.28
2022-09-20T06:55:27.200Z,100085.81
2022-09-20T07:00:30.857Z,100086.72
2022-09-20T07:05:32.680Z,100091.75
2022-09-20T07:10:34.278Z,100096.88
2022-09-20T07:15:36.075Z,100102.09
2022-09-20T07:20:37.983Z,100104.81
2022-09-20T07:25:39.608Z,100102.44
2022-09-20T07:30:41.765Z,100102.59
2022-09-20T07:35:43.510Z,100110.19
2022-09-20T07:40:47.928Z,100107.63
2022-09-20T07:45:57.973Z,100124.50
2022-09-20T07:51:08.034Z,100115.28
2022-09-20T07:56:13.259Z,100118.66
2022-09-20T08:01:14.884Z,100114.47
2022-09-20T08:06:18.430Z,100111.91
2022-09-20T08:11:27.828Z,100122.81
2022-09-20T08:16:31.264Z,100129.53
2022-09-20T08:21:35.210Z,100128.63
2022-09-20T08:26:37.348Z,100132.91
2022-09-20T08:31:42.369Z,100137.13
2022-09-20T08:36:52.019Z,100135.44
2022-09-20T08:42:05.613Z,100135.50
2022-09-20T08:47:19.806Z,100135.50
2022-09-20T08:52:35.834Z,100134.72
2022-09-20T08:57:38.236Z,100140.69
2022-09-20T09:02:41.583Z,100125.56
2022-09-20T09:07:43.177Z,100133.16
2022-09-20T09:12:48.646Z,100125.56
2022-09-20T09:17:50.966Z,100114.59
2022-09-20T09:23:09.027Z,100120.44
2022-09-20T09:28:10.531Z,100117.00
2022-09-20T09:33:31.624Z,100100.09
2022-09-20T09:38:38.567Z,100093.38
2022-09-20T09:43:40.560Z,100084.84
2022-09-20T09:48:42.332Z,100078.00
2022-09-20T09:53:45.668Z,100082.09
2022-09-20T09:59:07.106Z,100076.06
2022-09-20T10:04:22.748Z,100061.56
2022-09-20T10:09:55.160Z,100058.38
2022-09-20T10:15:02.991Z,100057.72
2022-09-20T10:20:25.716Z,100051.78
2022-09-20T10:25:49.245Z,100046.75
2022-09-20T10:31:31.170Z,100053.41
2022-09-20T10:36:52.320Z,100043.84
2022-09-20T10:42:43.095Z,100054.91
2022-09-20T10:47:55.694Z,100039.84
2022-09-20T10:53:17.030Z,100043.22
2022-09-20T10:58:43.491Z,100045.59
2022-09-20T11:04:12.357Z,100048.00
2022-09-20T11:09:21.468Z,100046.06
2022-09-20T11:14:32.685Z,100038.09
2022-09-20T11:19:53.410Z,100036.19
2022-09-20T11:25:20.045Z,100074.25
2022-09-20T11:30:24.053Z,100063.47
2022-09-20T11:35:34.719Z,100073.91
2022-09-20T11:40:45.466Z,100072.34
2022-09-20T11:45:54.023Z,100087.56
2022-09-20T11:51:13.616Z,100079.13
2022-09-20T11:56:27.721Z,100080.00
2022-09-20T12:01:39.280Z,100087.56
2022-09-20T12:06:42.817Z,100105.25
2022-09-20T12:11:44.614Z,100099.34
2022-09-20T12:16:48.602Z,100099.34
2022-09-20T12:21:59.050Z,100102.72
2022-09-20T12:27:19.965Z,100111.16
2022-09-20T12:32:56.333Z,100114.53
2022-09-20T12:38:21.723Z,100105.25
2022-09-20T12:43:23.908Z,100098.50
2022-09-20T12:48:25.733Z,100095.97
2022-09-20T12:53:27.576Z,100095.97
2022-09-20T12:58:53.568Z,100101.88
2022-09-20T13:04:33.849Z,100096.81
2022-09-20T13:09:35.388Z,100088.34
2022-09-20T13:14:40.601Z,100088.19
2022-09-20T13:19:47.443Z,100098.28
2022-09-20T13:24:52.597Z,100100.94
2022-09-20T13:29:55.109Z,100090.81
2022-09-20T13:35:07.041Z,100101.88
2022-09-20T13:40:43.701Z,100091.78
2022-09-20T13:45:47.580Z,100081.69
2022-09-20T13:50:53.468Z,100078.31
2022-09-20T13:55:55.629Z,100076.63
2022-09-20T14:01:04.743Z,100077.47
2022-09-20T14:06:09.946Z,100081.72
2022-09-20T14:11:18.579Z,100075.81
2022-09-20T14:16:23.288Z,100069.06
2022-09-20T14:21:27.660Z,100066.53
2022-09-20T14:26:36.218Z,100072.44
2022-09-20T14:31:48.250Z,100071.59
2022-09-20T14:36:51.007Z,100076.66
2022-09-20T14:41:52.857Z,100076.66
2022-09-20T14:46:54.717Z,100078.34
2022-09-20T14:52:25.506Z,100081.69
2022-09-20T14:57:28.413Z,100081.69
2022-09-20T15:02:30.336Z,100095.19
2022-09-20T15:07:32.045Z,100096.03
2022-09-20T15:12:33.703Z,100093.50
2022-09-20T15:17:35.616Z,100090.97
2022-09-20T15:22:38.576Z,100081.69
2022-09-20T15:27:41.789Z,100097.69
2022-09-20T15:32:44.787Z,100099.34
2022-09-20T15:37:46.556Z,100105.25
2022-09-20T15:42:48.345Z,100112.81
2022-09-20T15:47:49.883Z,100127.94
2022-09-20T15:52:51.680Z,100129.59
2022-09-20T15:57:53.712Z,100143.03
2022-09-20T16:02:55.300Z,100156.50
2022-09-20T16:07:58.123Z,100164.88
2022-09-20T16:13:00.101Z,100166.59
2022-09-20T16:18:20.581Z,100175.88
2022-09-20T16:23:25.943Z,100178.41
2022-09-20T16:28:28.216Z,100180.09
2022-09-20T16:33:30.373Z,100181.81
2022-09-20T16:38:32.483Z,100181.81
2022-09-20T16:43:35.505Z,100191.06
2022-09-20T16:48:37.465Z,100200.31
2022-09-20T16:53:39.037Z,100207.00
2022-09-20T16:58:41.880Z,100206.97
2022-09-20T17:03:44.803Z,100215.34
2022-09-20T17:08:47.355Z,100222.88
2022-09-20T17:13:53.072Z,100225.38
2022-09-20T17:19:03.202Z,100232.09
2022-09-20T17:24:07.120Z,100242.19
2022-09-20T17:29:10.641Z,100258.16
2022-09-20T17:34:14.033Z,100257.31
2022-09-20T17:39:16.581Z,100251.41
2022-09-20T17:44:18.320Z,100248.84
2022-09-20T17:49:22.286Z,100263.13
2022-09-20T17:54:24.803Z,100258.91
2022-09-20T17:59:26.876Z,100263.91
2022-09-20T18:04:28.663Z,100265.56
2022-09-20T18:09:30.453Z,100267.19
2022-09-20T18:14:32.570Z,100274.72
2022-09-20T18:19:34.447Z,100267.91
2022-09-20T18:24:36.000Z,100268.66
2022-09-20T18:29:37.619Z,100270.31
2022-09-20T18:34:39.576Z,100281.19
2022-09-20T18:39:41.188Z,100276.06
2022-09-20T18:44:43.887Z,100290.28
2022-09-20T18:49:45.501Z,100285.13
2022-09-20T18:54:47.061Z,100294.34
2022-09-20T18:59:54.407Z,100293.38
2022-09-20T19:05:33.284Z,100291.63
2022-09-20T19:10:52.252Z,100292.38
2022-09-20T19:16:16.649Z,100299.88
2022-09-20T19:21:33.364Z,100308.19
2022-09-20T19:26:38.716Z,100306.47
2022-09-20T19:31:40.537Z,100310.63
2022-09-20T19:36:51.172Z,100302.16
2022-09-20T19:42:00.354Z,100314.75
2022-09-20T19:47:19.843Z,100313.81
2022-09-20T19:52:23.026Z,100323.97
2022-09-20T19:57:39.786Z,100323.91
2022-09-20T20:02:43.564Z,100328.06
2022-09-20T20:08:10.045Z,100328.00
2022-09-20T20:13:45.286Z,100339.75
2022-09-20T20:19:19.886Z,100338.91
2022-09-20T20:24:37.330Z,100347.28
2022-09-20T20:29:39.028Z,100353.97
2022-09-20T20:34:41.152Z,100353.91
2022-09-20T20:39:43.139Z,100363.09
2022-09-20T20:44:45.404Z,100370.59
2022-09-20T20:49:52.002Z,100378.03
2022-09-20T20:54:54.377Z,100378.75
2022-09-20T20:59:56.158Z,100384.56
2022-09-20T21:04:58.761Z,100378.56
2022-09-20T21:10:01.590Z,100386.97
2022-09-20T21:15:03.784Z,100394.47
2022-09-20T21:20:06.095Z,100397.03
2022-09-20T21:25:08.713Z,100401.97
2022-09-20T21:30:11.503Z,100402.75
2022-09-20T21:35:13.317Z,100409.44
2022-09-20T21:40:14.973Z,100416.03
2022-09-20T21:45:20.707Z,100416.78
2022-09-20T21:50:22.815Z,100423.59
2022-09-20T21:55:24.652Z,100425.31
2022-09-20T22:00:27.230Z,100427.00
2022-09-20T22:05:29.026Z,100426.97
2022-09-20T22:10:30.580Z,100433.84
2022-09-20T22:15:32.466Z,100424.56
2022-09-20T22:20:34.285Z,100432.97
2022-09-20T22:25:35.918Z,100425.41
2022-09-20T22:30:38.011Z,100421.19
2022-09-20T22:35:44.560Z,100427.88
2022-09-20T22:40:56.533Z,100435.44
2022-09-20T22:46:25.588Z,100430.31
2022-09-20T22:51:30.791Z,100428.63
2022-09-20T22:56:33.043Z,100427.75
2022-09-20T23:01:36.941Z,100425.16
2022-09-20T23:06:43.767Z,100426.88
2022-09-20T23:11:46.394Z,100427.53
2022-09-20T23:16:48.632Z,100428.44
2022-09-20T23:21:50.475Z,100430.97
2022-09-20T23:26:52.021Z,100427.66
2022-09-20T23:31:53.729Z,100430.97
2022-09-20T23:36:55.478Z,100430.06
2022-09-20T23:41:57.518Z,100439.25
2022-09-20T23:46:59.070Z,100430.78
2022-09-20T23:52:00.841Z,100444.28
2022-09-20T23:57:02.461Z,100437.44
